createdAt,value
2022-07-30T00:00:06.343Z,69.40
2022-07-30T00:00:24.721Z,69.40
2022-07-30T00:00:37.089Z,69.50
2022-07-30T00:00:48.864Z,69.40
2022-07-30T00:01:00.796Z,69.40
2022-07-30T00:01:12.665Z,69.40
2022-07-30T00:01:24.479Z,69.40
2022-07-30T00:01:36.368Z,69.70
2022-07-30T00:01:48.125Z,69.60
2022-07-30T00:01:59.864Z,69.50
2022-07-30T00:02:11.585Z,69.50
2022-07-30T00:02:23.348Z,69.40
2022-07-30T00:02:35.145Z,69.40
2022-07-30T00:02:46.865Z,69.40
2022-07-30T00:02:58.617Z,69.50
2022-07-30T00:03:10.324Z,69.50
2022-07-30T00:03:22.252Z,69.60
2022-07-30T00:03:34.152Z,69.50
2022-07-30T00:03:45.951Z,69.50
2022-07-30T00:03:57.761Z,69.50
2022-07-30T00:04:09.634Z,69.50
2022-07-30T00:04:21.489Z,69.40
2022-07-30T00:04:33.272Z,70.00
2022-07-30T00:04:45.788Z,69.40
2022-07-30T00:04:57.555Z,69.40
2022-07-30T00:05:09.756Z,69.30
2022-07-30T00:05:21.547Z,69.30
2022-07-30T00:05:33.266Z,69.30
2022-07-30T00:05:45.036Z,69.50
2022-07-30T00:05:56.783Z,69.50
2022-07-30T00:06:08.513Z,69.40
2022-07-30T00:06:20.321Z,69.50
2022-07-30T00:06:32.693Z,69.50
2022-07-30T00:06:44.434Z,69.50
2022-07-30T00:06:56.152Z,69.50
2022-07-30T00:07:07.915Z,69.50
2022-07-30T00:07:19.652Z,69.50
2022-07-30T00:07:31.463Z,69.40
2022-07-30T00:07:43.179Z,69.40
2022-07-30T00:07:54.963Z,69.50
2022-07-30T00:08:06.673Z,69.60
2022-07-30T00:08:18.495Z,69.80
2022-07-30T00:08:30.212Z,69.80
2022-07-30T00:08:41.933Z,69.80
2022-07-30T00:08:53.708Z,69.80
2022-07-30T00:09:05.640Z,69.80
2022-07-30T00:09:17.401Z,69.80
2022-07-30T00:09:29.107Z,69.70
2022-07-30T00:09:45.923Z,69.70
2022-07-30T00:09:57.636Z,69.50
2022-07-30T00:10:09.736Z,69.50
2022-07-30T00:10:23.096Z,69.60
2022-07-30T00:10:34.873Z,69.60
2022-07-30T00:10:46.632Z,69.60
2022-07-30T00:11:01.972Z,69.60
2022-07-30T00:11:15.380Z,69.70
2022-07-30T00:11:28.008Z,69.70
2022-07-30T00:11:39.993Z,69.70
2022-07-30T00:11:51.727Z,70.50
2022-07-30T00:12:04.821Z,70.00
2022-07-30T00:12:16.577Z,69.90
2022-07-30T00:12:28.305Z,69.70
2022-07-30T00:12:40.016Z,69.60
2022-07-30T00:12:51.787Z,69.50
2022-07-30T00:13:03.522Z,69.50
2022-07-30T00:13:15.274Z,69.50
2022-07-30T00:13:26.989Z,69.40
2022-07-30T00:13:38.736Z,69.60
2022-07-30T00:13:50.720Z,69.50
2022-07-30T00:14:02.462Z,69.40
2022-07-30T00:14:14.227Z,69.50
2022-07-30T00:14:26.420Z,69.70
2022-07-30T00:14:38.250Z,69.70
2022-07-30T00:14:49.981Z,69.60
2022-07-30T00:15:01.684Z,69.50
2022-07-30T00:15:13.429Z,69.70
2022-07-30T00:15:25.150Z,69.70
2022-07-30T00:15:36.925Z,69.70
2022-07-30T00:15:48.691Z,69.60
2022-07-30T00:16:00.428Z,69.50
2022-07-30T00:16:12.258Z,69.50
2022-07-30T00:16:24.101Z,69.50
2022-07-30T00:16:36.180Z,69.40
2022-07-30T00:16:48.041Z,69.50
2022-07-30T00:17:00.172Z,69.50
2022-07-30T00:17:12.545Z,69.50
2022-07-30T00:17:24.312Z,69.40
2022-07-30T00:17:36.024Z,69.50
2022-07-30T00:17:49.340Z,69.40
2022-07-30T00:18:01.267Z,69.50
2022-07-30T00:18:13.346Z,69.60
2022-07-30T00:18:25.152Z,69.50
2022-07-30T00:18:36.896Z,69.50
2022-07-30T00:18:50.318Z,69.40
2022-07-30T00:19:03.413Z,69.40
2022-07-30T00:19:15.317Z,69.40
2022-07-30T00:19:27.393Z,69.30
2022-07-30T00:19:39.108Z,69.30
2022-07-30T00:19:50.845Z,69.30
2022-07-30T00:20:05.909Z,69.30
2022-07-30T00:20:18.640Z,69.30
2022-07-30T00:20:30.454Z,69.30
2022-07-30T00:20:44.409Z,69.40
2022-07-30T00:20:56.450Z,69.40
2022-07-30T00:21:08.257Z,69.40
2022-07-30T00:21:36.381Z,69.30
2022-07-30T00:21:50.705Z,69.30
2022-07-30T00:22:02.472Z,69.40
2022-07-30T00:22:14.197Z,69.40
2022-07-30T00:22:25.917Z,69.40
2022-07-30T00:22:37.640Z,69.50
2022-07-30T00:22:49.459Z,69.20
2022-07-30T00:23:04.843Z,69.20
2022-07-30T00:23:16.587Z,69.10
2022-07-30T00:23:28.316Z,69.20
2022-07-30T00:23:40.021Z,69.30
2022-07-30T00:24:11.764Z,69.30
2022-07-30T00:24:23.550Z,69.20
2022-07-30T00:24:35.300Z,69.20
2022-07-30T00:24:47.011Z,69.10
2022-07-30T00:24:59.099Z,69.10
2022-07-30T00:25:11.305Z,69.00
2022-07-30T00:25:23.100Z,68.90
2022-07-30T00:25:34.894Z,68.90
2022-07-30T00:25:46.596Z,68.80
2022-07-30T00:25:58.620Z,68.90
2022-07-30T00:26:10.331Z,68.90
2022-07-30T00:26:22.048Z,68.90
2022-07-30T00:26:33.760Z,68.80
2022-07-30T00:26:45.509Z,68.70
2022-07-30T00:26:57.446Z,68.70
2022-07-30T00:27:09.328Z,68.70
2022-07-30T00:27:21.040Z,68.70
2022-07-30T00:27:35.146Z,68.80
2022-07-30T00:27:46.920Z,68.80
2022-07-30T00:27:58.641Z,68.90
2022-07-30T00:28:10.351Z,68.80
2022-07-30T00:28:22.072Z,68.80
2022-07-30T00:28:33.801Z,68.70
2022-07-30T00:28:45.623Z,68.60
2022-07-30T00:28:57.357Z,68.60
2022-07-30T00:29:09.102Z,68.60
2022-07-30T00:29:20.901Z,68.70
2022-07-30T00:29:32.615Z,68.60
2022-07-30T00:29:44.962Z,68.70
2022-07-30T00:29:56.821Z,68.70
2022-07-30T00:30:09.029Z,68.70
2022-07-30T00:30:20.815Z,68.80
2022-07-30T00:30:32.617Z,68.80
2022-07-30T00:30:44.462Z,68.80
2022-07-30T00:30:56.388Z,68.70
2022-07-30T00:31:08.334Z,68.70
2022-07-30T00:31:20.208Z,68.70
2022-07-30T00:31:32.287Z,68.70
2022-07-30T00:31:44.260Z,68.80
2022-07-30T00:31:55.981Z,68.90
2022-07-30T00:32:07.706Z,68.90
2022-07-30T00:32:19.436Z,68.80
2022-07-30T00:32:31.169Z,68.80
2022-07-30T00:32:42.938Z,69.00
2022-07-30T00:32:54.628Z,68.90
2022-07-30T00:33:08.197Z,68.90
2022-07-30T00:33:20.180Z,68.80
2022-07-30T00:33:31.892Z,68.80
2022-07-30T00:33:43.657Z,68.80
2022-07-30T00:33:55.483Z,68.90
2022-07-30T00:34:07.328Z,68.90
2022-07-30T00:34:19.073Z,68.80
2022-07-30T00:34:30.832Z,69.60
2022-07-30T00:34:42.566Z,69.00
2022-07-30T00:34:54.301Z,68.90
2022-07-30T00:35:06.695Z,68.90
2022-07-30T00:35:18.478Z,68.80
2022-07-30T00:35:30.293Z,68.90
2022-07-30T00:35:42.281Z,68.90
2022-07-30T00:35:53.985Z,69.00
2022-07-30T00:36:05.739Z,69.00
2022-07-30T00:36:17.586Z,69.00
2022-07-30T00:36:29.353Z,69.00
2022-07-30T00:36:41.076Z,68.90
2022-07-30T00:36:52.825Z,68.70
2022-07-30T00:37:04.541Z,68.80
2022-07-30T00:37:16.295Z,69.10
2022-07-30T00:37:28.000Z,69.00
2022-07-30T00:37:39.711Z,68.90
2022-07-30T00:37:51.461Z,68.90
2022-07-30T00:38:03.193Z,68.80
2022-07-30T00:38:14.923Z,68.90
2022-07-30T00:38:26.701Z,68.80
2022-07-30T00:38:38.421Z,68.80
2022-07-30T00:38:50.235Z,68.80
2022-07-30T00:39:02.077Z,68.70
2022-07-30T00:39:13.822Z,68.70
2022-07-30T00:39:25.709Z,68.60
2022-07-30T00:39:37.429Z,68.60
2022-07-30T00:39:49.214Z,68.60
2022-07-30T00:40:00.931Z,68.60
2022-07-30T00:40:12.737Z,68.70
2022-07-30T00:40:24.547Z,68.70
2022-07-30T00:40:36.277Z,68.70
2022-07-30T00:40:48.614Z,68.60
2022-07-30T00:41:00.332Z,68.50
2022-07-30T00:41:12.109Z,68.60
2022-07-30T00:41:24.701Z,68.50
2022-07-30T00:41:52.907Z,68.40
2022-07-30T00:42:04.657Z,68.40
2022-07-30T00:42:17.790Z,68.60
2022-07-30T00:42:42.883Z,69.00
2022-07-30T00:42:54.664Z,68.30
2022-07-30T00:43:06.452Z,68.20
2022-07-30T00:43:18.309Z,68.20
2022-07-30T00:43:30.045Z,68.30
2022-07-30T00:43:41.780Z,68.30
2022-07-30T00:43:53.522Z,68.20
2022-07-30T00:44:05.242Z,68.30
2022-07-30T00:44:16.949Z,68.40
2022-07-30T00:44:28.885Z,68.30
2022-07-30T00:44:41.387Z,68.50
2022-07-30T00:44:53.190Z,68.70
2022-07-30T00:45:06.857Z,68.50
2022-07-30T00:45:18.598Z,68.50
2022-07-30T00:45:30.345Z,68.50
2022-07-30T00:45:42.719Z,68.50
2022-07-30T00:45:54.560Z,68.50
2022-07-30T00:46:06.399Z,68.50
2022-07-30T00:46:18.262Z,68.60
2022-07-30T00:46:30.033Z,68.50
2022-07-30T00:46:41.737Z,68.70
2022-07-30T00:46:53.640Z,68.60
2022-07-30T00:47:05.565Z,68.50
2022-07-30T00:47:17.301Z,68.70
2022-07-30T00:47:29.036Z,68.80
2022-07-30T00:47:40.949Z,68.60
2022-07-30T00:47:52.694Z,68.60
2022-07-30T00:48:04.756Z,68.50
2022-07-30T00:48:16.588Z,68.40
2022-07-30T00:48:28.308Z,68.50
2022-07-30T00:48:40.205Z,68.50
2022-07-30T00:48:52.005Z,68.40
2022-07-30T00:49:03.768Z,68.50
2022-07-30T00:49:15.600Z,68.40
2022-07-30T00:49:27.427Z,68.50
2022-07-30T00:49:43.959Z,68.40
2022-07-30T00:49:56.044Z,68.50
2022-07-30T00:50:09.208Z,68.60
2022-07-30T00:50:21.700Z,68.60
2022-07-30T00:50:34.105Z,68.60
2022-07-30T00:50:46.281Z,68.50
2022-07-30T00:51:00.297Z,68.60
2022-07-30T00:51:12.016Z,68.50
2022-07-30T00:51:23.731Z,68.70
2022-07-30T00:51:35.473Z,68.70
2022-07-30T00:51:47.263Z,69.00
2022-07-30T00:51:59.037Z,69.00
2022-07-30T00:52:10.778Z,69.00
2022-07-30T00:52:22.495Z,68.80
2022-07-30T00:52:35.608Z,68.70
2022-07-30T00:52:48.458Z,68.70
2022-07-30T00:53:00.230Z,68.80
2022-07-30T00:53:11.996Z,68.80
2022-07-30T00:53:24.452Z,68.80
2022-07-30T00:53:36.223Z,68.80
2022-07-30T00:53:47.941Z,68.80
2022-07-30T00:54:01.779Z,68.90
2022-07-30T00:54:13.600Z,69.00
2022-07-30T00:54:25.351Z,69.10
2022-07-30T00:54:37.068Z,69.00
2022-07-30T00:54:48.775Z,69.00
2022-07-30T00:55:00.625Z,69.20
2022-07-30T00:55:13.710Z,69.20
2022-07-30T00:55:25.520Z,69.10
2022-07-30T00:55:37.557Z,69.00
2022-07-30T00:55:51.650Z,69.00
2022-07-30T00:56:03.753Z,68.90
2022-07-30T00:56:15.472Z,68.90
2022-07-30T00:56:27.401Z,68.90
2022-07-30T00:56:39.207Z,68.90
2022-07-30T00:56:51.086Z,68.80
2022-07-30T00:57:03.054Z,68.90
2022-07-30T00:57:15.049Z,68.90
2022-07-30T00:57:27.600Z,68.90
2022-07-30T00:57:39.515Z,69.00
2022-07-30T00:57:51.320Z,68.90
2022-07-30T00:58:03.066Z,68.90
2022-07-30T00:58:15.741Z,68.80
2022-07-30T00:58:27.691Z,68.70
2022-07-30T00:58:39.410Z,68.70
2022-07-30T00:58:51.126Z,69.40
2022-07-30T00:59:02.886Z,68.70
2022-07-30T00:59:14.710Z,68.70
2022-07-30T00:59:28.573Z,68.80
2022-07-30T00:59:40.293Z,68.90
2022-07-30T00:59:52.068Z,69.00
2022-07-30T01:00:08.899Z,69.00
2022-07-30T01:00:20.665Z,68.90
2022-07-30T01:00:32.395Z,68.80
2022-07-30T01:00:44.297Z,68.70
2022-07-30T01:00:56.071Z,68.80
2022-07-30T01:01:07.885Z,68.80
2022-07-30T01:01:21.000Z,69.50
2022-07-30T01:01:33.575Z,68.80
2022-07-30T01:01:45.457Z,68.80
2022-07-30T01:01:57.617Z,68.90
2022-07-30T01:02:09.396Z,68.90
2022-07-30T01:02:21.218Z,68.90
2022-07-30T01:02:33.041Z,69.00
2022-07-30T01:02:44.934Z,69.10
2022-07-30T01:02:56.770Z,69.00
2022-07-30T01:03:08.488Z,68.90
2022-07-30T01:03:20.223Z,68.90
2022-07-30T01:03:31.945Z,68.90
2022-07-30T01:03:43.738Z,68.90
2022-07-30T01:03:55.555Z,68.90
2022-07-30T01:04:11.769Z,69.00
2022-07-30T01:04:23.581Z,69.00
2022-07-30T01:04:35.321Z,69.00
2022-07-30T01:04:47.155Z,69.10
2022-07-30T01:04:58.883Z,69.00
2022-07-30T01:05:10.754Z,69.20
2022-07-30T01:05:22.753Z,69.10
2022-07-30T01:05:34.562Z,69.00
2022-07-30T01:05:46.456Z,69.00
2022-07-30T01:05:58.180Z,69.10
2022-07-30T01:06:14.323Z,69.10
2022-07-30T01:06:26.752Z,69.10
2022-07-30T01:06:39.777Z,69.40
2022-07-30T01:06:51.509Z,69.30
2022-07-30T01:07:03.524Z,69.20
2022-07-30T01:07:15.456Z,69.10
2022-07-30T01:07:27.422Z,69.20
2022-07-30T01:07:39.233Z,69.30
2022-07-30T01:07:51.602Z,69.40
2022-07-30T01:08:03.459Z,69.30
2022-07-30T01:08:15.211Z,69.20
2022-07-30T01:08:26.980Z,69.30
2022-07-30T01:08:38.757Z,69.20
2022-07-30T01:08:50.506Z,69.20
2022-07-30T01:09:02.270Z,69.10
2022-07-30T01:09:13.968Z,69.20
2022-07-30T01:09:25.789Z,69.30
2022-07-30T01:09:40.670Z,69.40
2022-07-30T01:09:59.874Z,69.40
2022-07-30T01:10:13.292Z,69.30
2022-07-30T01:10:25.028Z,69.20
2022-07-30T01:10:36.785Z,69.50
2022-07-30T01:10:48.513Z,69.60
2022-07-30T01:11:00.246Z,69.60
2022-07-30T01:11:11.967Z,69.70
2022-07-30T01:11:24.245Z,69.60
2022-07-30T01:11:37.541Z,69.70
2022-07-30T01:11:49.255Z,69.80
2022-07-30T01:12:01.175Z,70.50
2022-07-30T01:12:12.893Z,70.00
2022-07-30T01:12:25.737Z,69.80
2022-07-30T01:12:37.589Z,69.90
2022-07-30T01:12:49.309Z,69.70
2022-07-30T01:13:02.051Z,69.70
2022-07-30T01:13:13.799Z,69.70
2022-07-30T01:13:25.595Z,69.60
2022-07-30T01:13:37.330Z,69.60
2022-07-30T01:13:49.041Z,69.80
2022-07-30T01:14:00.761Z,69.90
2022-07-30T01:14:12.551Z,69.90
2022-07-30T01:14:24.282Z,69.80
2022-07-30T01:14:36.351Z,69.80
2022-07-30T01:14:48.070Z,69.70
2022-07-30T01:14:59.838Z,69.80
2022-07-30T01:15:11.733Z,69.70
2022-07-30T01:15:23.508Z,69.70
2022-07-30T01:15:35.582Z,69.90
2022-07-30T01:15:47.885Z,69.90
2022-07-30T01:15:59.740Z,70.00
2022-07-30T01:16:11.641Z,70.00
2022-07-30T01:16:23.517Z,70.00
2022-07-30T01:16:36.434Z,70.10
2022-07-30T01:16:49.676Z,70.10
2022-07-30T01:17:01.901Z,70.10
2022-07-30T01:17:13.975Z,70.10
2022-07-30T01:17:26.017Z,70.20
2022-07-30T01:17:37.962Z,70.20
2022-07-30T01:17:49.876Z,70.10
2022-07-30T01:18:07.084Z,70.00
2022-07-30T01:18:18.797Z,70.00
2022-07-30T01:18:50.477Z,69.90
2022-07-30T01:19:21.245Z,70.10
2022-07-30T01:19:48.787Z,70.30
2022-07-30T01:20:06.168Z,70.30
2022-07-30T01:20:31.225Z,70.40
2022-07-30T01:20:45.988Z,70.40
2022-07-30T01:21:02.304Z,70.50
2022-07-30T01:21:14.014Z,70.60
2022-07-30T01:21:31.109Z,70.60
2022-07-30T01:21:45.728Z,70.50
2022-07-30T01:22:12.846Z,70.50
2022-07-30T01:22:30.857Z,70.40
2022-07-30T01:23:16.375Z,70.20
2022-07-30T01:23:36.668Z,70.20
2022-07-30T01:23:49.235Z,70.50
2022-07-30T01:24:08.182Z,71.10
2022-07-30T01:24:26.818Z,70.60
2022-07-30T01:24:58.404Z,70.70
2022-07-30T01:25:12.459Z,70.70
2022-07-30T01:26:01.283Z,71.00
2022-07-30T01:26:15.057Z,71.10
2022-07-30T01:26:26.904Z,71.00
2022-07-30T01:26:38.654Z,71.00
2022-07-30T01:26:50.427Z,71.00
2022-07-30T01:27:02.640Z,70.90
2022-07-30T01:27:19.692Z,70.80
2022-07-30T01:27:34.073Z,70.90
2022-07-30T01:27:49.064Z,70.80
2022-07-30T01:28:02.522Z,70.80
2022-07-30T01:28:18.600Z,70.90
2022-07-30T01:28:36.766Z,70.90
2022-07-30T01:28:50.137Z,71.10
2022-07-30T01:29:01.985Z,71.00
2022-07-30T01:29:13.737Z,71.10
2022-07-30T01:29:25.529Z,71.30
2022-07-30T01:29:37.587Z,71.30
2022-07-30T01:29:49.644Z,71.30
2022-07-30T01:30:02.729Z,71.50
2022-07-30T01:30:16.919Z,71.50
2022-07-30T01:30:31.253Z,71.30
2022-07-30T01:30:44.146Z,71.10
2022-07-30T01:30:56.378Z,71.10
2022-07-30T01:31:08.386Z,71.20
2022-07-30T01:31:20.288Z,71.30
2022-07-30T01:31:32.118Z,71.20
2022-07-30T01:31:44.312Z,71.40
2022-07-30T01:31:59.593Z,71.30
2022-07-30T01:32:11.420Z,71.30
2022-07-30T01:32:23.908Z,71.30
2022-07-30T01:32:36.953Z,71.20
2022-07-30T01:32:48.828Z,71.20
2022-07-30T01:33:00.704Z,71.10
2022-07-30T01:33:15.218Z,71.30
2022-07-30T01:33:26.976Z,71.40
2022-07-30T01:33:40.630Z,71.50
2022-07-30T01:33:52.361Z,71.40
2022-07-30T01:34:04.192Z,71.50
2022-07-30T01:34:15.931Z,71.50
2022-07-30T01:34:29.899Z,71.50
2022-07-30T01:34:41.701Z,71.60
2022-07-30T01:34:53.558Z,71.50
2022-07-30T01:35:05.775Z,71.60
2022-07-30T01:35:18.205Z,71.70
2022-07-30T01:35:31.045Z,71.70
2022-07-30T01:35:44.423Z,71.70
2022-07-30T01:35:59.110Z,71.70
2022-07-30T01:36:12.298Z,71.70
2022-07-30T01:36:24.072Z,71.90
2022-07-30T01:36:35.785Z,72.00
2022-07-30T01:36:47.553Z,72.00
2022-07-30T01:36:59.589Z,72.00
2022-07-30T01:37:11.566Z,72.00
2022-07-30T01:37:23.281Z,72.10
2022-07-30T01:37:35.057Z,72.00
2022-07-30T01:37:46.773Z,72.10
2022-07-30T01:37:58.488Z,72.10
2022-07-30T01:38:11.304Z,72.10
2022-07-30T01:38:23.692Z,72.00
2022-07-30T01:38:35.468Z,72.00
2022-07-30T01:38:47.266Z,72.10
2022-07-30T01:38:59.004Z,72.10
2022-07-30T01:39:10.966Z,72.20
2022-07-30T01:39:22.691Z,72.20
2022-07-30T01:39:34.441Z,72.20
2022-07-30T01:39:46.192Z,72.10
2022-07-30T01:39:58.074Z,72.00
2022-07-30T01:40:10.206Z,71.90
2022-07-30T01:40:21.944Z,71.80
2022-07-30T01:40:33.703Z,71.80
2022-07-30T01:40:45.442Z,71.80
2022-07-30T01:40:57.290Z,71.90
2022-07-30T01:41:09.025Z,71.80
2022-07-30T01:41:21.410Z,71.90
2022-07-30T01:41:33.125Z,72.10
2022-07-30T01:41:44.874Z,72.00
2022-07-30T01:41:57.571Z,72.10
2022-07-30T01:42:09.549Z,72.00
2022-07-30T01:42:21.534Z,72.10
2022-07-30T01:42:33.237Z,72.00
2022-07-30T01:42:46.953Z,72.00
2022-07-30T01:42:59.274Z,72.10
2022-07-30T01:43:10.977Z,72.10
2022-07-30T01:43:23.803Z,72.20
2022-07-30T01:43:35.721Z,72.40
2022-07-30T01:43:47.503Z,72.40
2022-07-30T01:43:59.232Z,72.30
2022-07-30T01:44:12.205Z,72.40
2022-07-30T01:44:24.467Z,72.50
2022-07-30T01:44:36.235Z,72.50
2022-07-30T01:44:48.570Z,72.20
2022-07-30T01:45:00.334Z,72.10
2022-07-30T01:45:12.506Z,72.30
2022-07-30T01:45:25.020Z,72.50
2022-07-30T01:45:41.580Z,72.80
2022-07-30T01:45:56.088Z,72.80
2022-07-30T01:46:07.996Z,72.60
2022-07-30T01:46:19.918Z,72.80
2022-07-30T01:46:31.712Z,72.60
2022-07-30T01:46:43.451Z,72.40
2022-07-30T01:46:55.372Z,72.50
2022-07-30T01:47:07.113Z,72.60
2022-07-30T01:47:18.832Z,72.70
2022-07-30T01:47:30.900Z,72.70
2022-07-30T01:47:42.664Z,72.60
2022-07-30T01:47:54.837Z,72.50
2022-07-30T01:48:06.658Z,72.50
2022-07-30T01:48:20.148Z,72.50
2022-07-30T01:48:31.892Z,72.60
2022-07-30T01:48:44.053Z,72.70
2022-07-30T01:48:55.841Z,72.70
2022-07-30T01:49:08.882Z,72.80
2022-07-30T01:49:22.140Z,72.60
2022-07-30T01:49:34.018Z,72.60
2022-07-30T01:49:46.178Z,72.60
2022-07-30T01:49:57.940Z,72.40
2022-07-30T01:50:13.725Z,72.50
2022-07-30T01:50:25.481Z,72.70
2022-07-30T01:50:37.214Z,72.70
2022-07-30T01:50:50.135Z,72.60
2022-07-30T01:51:04.321Z,72.60
2022-07-30T01:51:16.065Z,72.50
2022-07-30T01:51:27.776Z,72.80
2022-07-30T01:51:49.429Z,72.80
2022-07-30T01:52:01.221Z,72.70
2022-07-30T01:52:12.956Z,72.80
2022-07-30T01:52:24.677Z,72.90
2022-07-30T01:52:36.436Z,72.90
2022-07-30T01:52:49.101Z,72.80
2022-07-30T01:53:01.021Z,73.10
2022-07-30T01:53:17.229Z,72.70
2022-07-30T01:53:30.572Z,72.80
2022-07-30T01:53:42.318Z,72.60
2022-07-30T01:53:54.089Z,72.80
2022-07-30T01:54:08.117Z,72.90
2022-07-30T01:54:19.857Z,73.00
2022-07-30T01:54:32.007Z,72.80
2022-07-30T01:54:45.238Z,72.80
2022-07-30T01:54:56.973Z,72.80
2022-07-30T01:55:17.032Z,72.80
2022-07-30T01:55:32.732Z,72.70
2022-07-30T01:55:44.917Z,72.80
2022-07-30T01:55:56.617Z,72.80
2022-07-30T01:56:10.771Z,72.70
2022-07-30T01:56:24.517Z,72.60
2022-07-30T01:56:37.212Z,72.60
2022-07-30T01:56:50.803Z,72.60
2022-07-30T01:57:03.558Z,72.60
2022-07-30T01:57:15.829Z,72.50
2022-07-30T01:57:27.640Z,72.60
2022-07-30T01:57:39.429Z,72.70
2022-07-30T01:57:51.372Z,72.90
2022-07-30T01:58:06.219Z,73.00
2022-07-30T01:58:19.517Z,72.90
2022-07-30T01:58:35.758Z,72.90
2022-07-30T01:58:47.498Z,72.90
2022-07-30T01:58:59.286Z,73.00
2022-07-30T01:59:11.017Z,72.90
2022-07-30T01:59:22.847Z,72.90
2022-07-30T01:59:34.880Z,72.90
2022-07-30T01:59:49.264Z,72.80
2022-07-30T02:00:03.083Z,72.70
2022-07-30T02:00:15.058Z,73.40
2022-07-30T02:00:27.429Z,73.00
2022-07-30T02:00:40.106Z,73.00
2022-07-30T02:00:52.031Z,72.80
2022-07-30T02:01:03.968Z,72.90
2022-07-30T02:01:17.171Z,72.80
2022-07-30T02:01:28.976Z,72.80
2022-07-30T02:01:40.720Z,72.80
2022-07-30T02:01:52.484Z,72.90
2022-07-30T02:02:04.202Z,73.10
2022-07-30T02:02:18.137Z,73.20
2022-07-30T02:02:30.025Z,73.10
2022-07-30T02:02:41.805Z,72.90
2022-07-30T02:02:54.358Z,72.80
2022-07-30T02:03:08.458Z,72.80
2022-07-30T02:03:20.266Z,72.80
2022-07-30T02:03:34.714Z,72.90
2022-07-30T02:03:46.916Z,73.20
2022-07-30T02:03:59.741Z,73.40
2022-07-30T02:04:11.508Z,73.50
2022-07-30T02:04:23.226Z,73.30
2022-07-30T02:04:34.938Z,73.30
2022-07-30T02:04:46.885Z,73.30
2022-07-30T02:04:58.628Z,73.20
2022-07-30T02:05:10.363Z,73.30
2022-07-30T02:05:22.186Z,73.30
2022-07-30T02:05:34.292Z,73.30
2022-07-30T02:05:50.702Z,73.40
2022-07-30T02:06:10.991Z,73.50
2022-07-30T02:06:25.821Z,73.60
2022-07-30T02:06:39.112Z,73.40
2022-07-30T02:07:00.055Z,73.30
2022-07-30T02:07:18.398Z,73.30
2022-07-30T02:07:36.837Z,73.30
2022-07-30T02:07:56.271Z,73.50
2022-07-30T02:08:33.518Z,74.40
2022-07-30T02:08:51.196Z,73.80
2022-07-30T02:09:10.807Z,73.90
2022-07-30T02:09:25.063Z,73.80
2022-07-30T02:09:45.623Z,73.80
2022-07-30T02:10:02.060Z,73.90
2022-07-30T02:10:16.000Z,73.70
2022-07-30T02:10:41.542Z,73.50
2022-07-30T02:10:57.420Z,74.20
2022-07-30T02:11:38.094Z,73.90
2022-07-30T02:12:08.728Z,74.00
2022-07-30T02:12:30.198Z,74.20
2022-07-30T02:12:45.401Z,73.80
2022-07-30T02:13:00.724Z,73.70
2022-07-30T02:13:12.985Z,73.80
2022-07-30T02:13:27.507Z,73.60
2022-07-30T02:13:57.105Z,73.60
2022-07-30T02:14:14.055Z,74.10
2022-07-30T02:14:47.189Z,74.00
2022-07-30T02:15:20.641Z,74.10
2022-07-30T02:15:38.981Z,74.50
2022-07-30T02:15:58.245Z,74.10
2022-07-30T02:16:31.273Z,74.20
2022-07-30T02:16:43.110Z,74.10
2022-07-30T02:16:59.174Z,74.10
2022-07-30T02:17:18.505Z,74.30
2022-07-30T02:17:39.802Z,74.40
2022-07-30T02:18:16.797Z,74.50
2022-07-30T02:18:33.448Z,74.40
2022-07-30T02:19:13.224Z,75.00
2022-07-30T02:19:32.715Z,74.70
2022-07-30T02:19:46.218Z,74.60
2022-07-30T02:19:58.665Z,74.40
2022-07-30T02:20:11.853Z,74.50
2022-07-30T02:20:28.243Z,74.50
2022-07-30T02:20:40.207Z,74.30
2022-07-30T02:20:55.857Z,74.20
2022-07-30T02:21:11.450Z,74.30
2022-07-30T02:21:23.763Z,74.60
2022-07-30T02:21:53.842Z,74.80
2022-07-30T02:22:08.662Z,74.80
2022-07-30T02:22:20.817Z,74.70
2022-07-30T02:22:35.179Z,74.90
2022-07-30T02:22:47.373Z,74.80
2022-07-30T02:23:03.393Z,75.00
2022-07-30T02:23:15.461Z,75.20
2022-07-30T02:23:27.250Z,75.30
2022-07-30T02:23:40.945Z,75.10
2022-07-30T02:23:52.666Z,75.20
2022-07-30T02:24:12.962Z,75.10
2022-07-30T02:24:27.909Z,75.10
2022-07-30T02:24:39.724Z,74.90
2022-07-30T02:24:51.817Z,74.90
2022-07-30T02:25:04.506Z,75.00
2022-07-30T02:25:19.106Z,74.90
2022-07-30T02:25:32.669Z,74.80
2022-07-30T02:25:47.380Z,74.70
2022-07-30T02:26:00.504Z,75.00
2022-07-30T02:26:18.644Z,74.90
2022-07-30T02:26:30.466Z,75.00
2022-07-30T02:26:43.017Z,74.90
2022-07-30T02:26:58.260Z,74.90
2022-07-30T02:27:35.247Z,74.90
2022-07-30T02:27:55.083Z,75.00
2022-07-30T02:28:07.632Z,75.30
2022-07-30T02:28:20.069Z,75.10
2022-07-30T02:28:33.311Z,75.10
2022-07-30T02:28:45.708Z,75.00
2022-07-30T02:28:59.606Z,74.80
2022-07-30T02:29:11.787Z,74.80
2022-07-30T02:29:23.757Z,75.90
2022-07-30T02:29:35.782Z,75.10
2022-07-30T02:29:47.504Z,75.10
2022-07-30T02:29:59.529Z,75.40
2022-07-30T02:30:12.128Z,75.80
2022-07-30T02:30:26.905Z,75.80
2022-07-30T02:30:44.229Z,75.00
2022-07-30T02:30:58.401Z,75.00
2022-07-30T02:31:17.678Z,74.80
2022-07-30T02:31:29.867Z,74.70
2022-07-30T02:31:41.906Z,74.80
2022-07-30T02:31:54.190Z,75.00
2022-07-30T02:32:08.218Z,74.80
2022-07-30T02:32:20.940Z,74.70
2022-07-30T02:32:37.830Z,74.70
2022-07-30T02:32:49.548Z,74.60
2022-07-30T02:33:03.906Z,74.70
2022-07-30T02:33:15.737Z,74.80
2022-07-30T02:33:33.985Z,74.80
2022-07-30T02:33:48.780Z,75.00
2022-07-30T02:34:02.376Z,75.00
2022-07-30T02:34:14.273Z,74.90
2022-07-30T02:34:26.019Z,75.10
2022-07-30T02:34:38.185Z,75.00
2022-07-30T02:34:52.145Z,74.90
2022-07-30T02:35:31.590Z,75.00
2022-07-30T02:35:43.322Z,74.80
2022-07-30T02:35:55.134Z,75.00
2022-07-30T02:36:09.764Z,75.00
2022-07-30T02:36:23.187Z,74.80
2022-07-30T02:36:35.080Z,74.80
2022-07-30T02:36:46.914Z,74.80
2022-07-30T02:36:58.908Z,74.70
2022-07-30T02:37:12.375Z,75.00
2022-07-30T02:37:41.588Z,75.10
2022-07-30T02:37:55.195Z,75.20
2022-07-30T02:38:07.061Z,75.10
2022-07-30T02:38:19.199Z,75.10
2022-07-30T02:38:30.954Z,75.00
2022-07-30T02:38:42.696Z,75.10
2022-07-30T02:38:54.426Z,75.20
2022-07-30T02:39:06.248Z,75.10
2022-07-30T02:39:17.993Z,75.20
2022-07-30T02:39:30.864Z,75.40
2022-07-30T02:39:43.297Z,75.40
2022-07-30T02:39:55.144Z,74.50
2022-07-30T02:40:07.581Z,74.30
2022-07-30T02:40:20.153Z,74.30
2022-07-30T02:40:31.985Z,74.20
2022-07-30T02:40:43.869Z,74.30
2022-07-30T02:40:55.903Z,74.10
2022-07-30T02:41:07.915Z,73.90
2022-07-30T02:41:22.543Z,73.80
2022-07-30T02:41:34.272Z,73.80
2022-07-30T02:41:49.725Z,73.80
2022-07-30T02:42:02.396Z,73.90
2022-07-30T02:42:14.242Z,73.90
2022-07-30T02:42:26.251Z,73.90
2022-07-30T02:42:39.032Z,73.70
2022-07-30T02:42:51.698Z,73.70
2022-07-30T02:43:03.736Z,73.60
2022-07-30T02:43:16.510Z,73.70
2022-07-30T02:43:28.306Z,73.90
2022-07-30T02:43:48.232Z,73.80
2022-07-30T02:43:59.953Z,73.70
2022-07-30T02:44:11.683Z,73.70
2022-07-30T02:44:23.449Z,73.90
2022-07-30T02:44:35.759Z,73.90
2022-07-30T02:44:47.492Z,73.90
2022-07-30T02:44:59.213Z,73.80
2022-07-30T02:45:11.034Z,73.70
2022-07-30T02:45:23.737Z,73.70
2022-07-30T02:45:35.683Z,73.80
2022-07-30T02:45:47.759Z,73.90
2022-07-30T02:45:59.598Z,73.90
2022-07-30T02:46:11.543Z,74.00
2022-07-30T02:46:24.615Z,73.90
2022-07-30T02:46:36.547Z,73.90
2022-07-30T02:46:49.174Z,73.90
2022-07-30T02:47:04.510Z,73.90
2022-07-30T02:47:16.688Z,73.70
2022-07-30T02:47:28.392Z,73.40
2022-07-30T02:47:40.140Z,73.40
2022-07-30T02:47:55.023Z,73.60
2022-07-30T02:48:07.866Z,73.70
2022-07-30T02:48:34.686Z,73.80
2022-07-30T02:48:47.292Z,73.80
2022-07-30T02:48:59.092Z,73.70
2022-07-30T02:49:10.953Z,74.20
2022-07-30T02:49:22.748Z,73.70
2022-07-30T02:49:35.724Z,73.70
2022-07-30T02:49:47.496Z,73.60
2022-07-30T02:49:59.604Z,73.60
2022-07-30T02:50:11.358Z,73.50
2022-07-30T02:50:23.222Z,73.40
2022-07-30T02:50:35.188Z,73.10
2022-07-30T02:50:48.359Z,72.70
2022-07-30T02:51:00.245Z,72.70
2022-07-30T02:51:12.034Z,72.70
2022-07-30T02:51:23.767Z,72.70
2022-07-30T02:51:35.504Z,72.60
2022-07-30T02:51:47.777Z,72.50
2022-07-30T02:52:00.506Z,72.50
2022-07-30T02:52:13.578Z,72.70